Time;durP1;ratioP1;P1;durP2;ratioP2;P2;SDS_P1;SDS_P2;PMS_P1;PMS_P2;Temp;Humidity;BMP_temperature;BMP_pressure;BME280_temperature;BME280_humidity;BME280_pressure;Samples;Min_cycle;Max_cycle;Signal;HPM_P1;HPM_P2
2023/07/05 00:01:32;;;;;;;26.02;9.93;;;;;;;21.39;100.00;98625.00;4971030;28;20453;-94
2023/07/05 00:03:58;;;;;;;29.42;10.73;;;;;;;21.43;100.00;98639.22;4983997;28;20043;-93
2023/07/05 00:06:23;;;;;;;27.20;11.13;;;;;;;21.33;100.00;98630.84;4964100;28;20039;-93
2023/07/05 00:08:50;;;;;;;27.80;11.07;;;;;;;21.33;100.00;98630.84;4974177;28;20077;-93
2023/07/05 00:11:17;;;;;;;28.35;11.05;;;;;;;21.24;100.00;98627.00;4971031;28;20042;-93
2023/07/05 00:13:43;;;;;;;33.85;11.68;;;;;;;21.22;100.00;98639.75;4963980;28;20047;-93
2023/07/05 00:16:12;;;;;;;29.45;10.65;;;;;;;21.08;100.00;98616.44;4945279;28;20050;-93
2023/07/05 00:18:38;;;;;;;27.90;10.88;;;;;;;21.06;100.00;98625.66;4978577;28;20031;-93
2023/07/05 00:21:06;;;;;;;30.15;10.48;;;;;;;21.01;100.00;98633.19;4966914;28;20047;-93
2023/07/05 00:23:33;;;;;;;28.40;10.73;;;;;;;20.99;100.00;98638.75;4967094;28;20050;-92
2023/07/05 00:25:59;;;;;;;27.77;10.98;;;;;;;20.87;100.00;98645.00;4964966;28;20134;-93
2023/07/05 00:28:26;;;;;;;29.50;11.23;;;;;;;20.72;100.00;98638.84;4965711;28;20067;-94
2023/07/05 00:30:52;;;;;;;29.42;11.02;;;;;;;20.52;100.00;98618.63;4961593;28;20043;-92
2023/07/05 00:33:19;;;;;;;31.02;11.80;;;;;;;20.43;100.00;98636.34;4968921;28;20059;-94
2023/07/05 00:35:47;;;;;;;32.05;11.68;;;;;;;20.31;100.00;98624.53;4966160;28;20040;-94
2023/07/05 00:38:13;;;;;;;25.35;10.27;;;;;;;20.28;100.00;98632.84;4967166;28;20126;-92
2023/07/05 00:40:39;;;;;;;32.65;11.00;;;;;;;20.17;100.00;98618.34;4959496;28;20070;-95
2023/07/05 00:43:05;;;;;;;30.80;11.13;;;;;;;20.32;100.00;98644.31;4963415;28;20125;-94
2023/07/05 00:45:51;;;;;;;29.83;11.77;;;;;;;20.23;100.00;98624.22;4967516;28;20067;-92
2023/07/05 00:48:21;;;;;;;32.30;11.93;;;;;;;20.25;100.00;98632.19;4967772;28;20043;-93
2023/07/05 00:50:50;;;;;;;32.50;10.85;;;;;;;20.19;100.00;98617.31;4962069;28;20577;-93
2023/07/05 00:53:17;;;;;;;31.45;11.98;;;;;;;20.30;100.00;98636.31;4961254;28;20051;-93
2023/07/05 00:55:48;;;;;;;28.90;10.68;;;;;;;20.27;100.00;98625.72;4976108;28;20069;-93
2023/07/05 00:58:14;;;;;;;25.45;10.88;;;;;;;20.28;100.00;98632.84;4971877;28;20516;-94
2023/07/05 01:00:40;;;;;;;28.42;11.40;;;;;;;20.28;100.00;98632.84;4969645;28;20059;-91
2023/07/05 01:03:16;;;;;;;29.48;11.45;;;;;;;20.30;100.00;98608.47;4970608;28;20051;-93
2023/07/05 01:05:44;;;;;;;29.50;10.40;;;;;;;20.46;100.00;98619.03;4961168;28;20071;-92
2023/07/05 01:08:10;;;;;;;35.57;12.90;;;;;;;20.38;100.00;98603.38;4983015;28;20409;-92
2023/07/05 01:10:38;;;;;;;35.22;11.57;;;;;;;20.56;100.00;98625.53;4963182;28;20575;-93
2023/07/05 01:13:11;;;;;;;32.97;11.50;;;;;;;20.46;100.00;98595.59;4970027;28;20062;-93
2023/07/05 01:15:44;;;;;;;30.60;11.68;;;;;;;20.64;100.00;98614.22;4965890;28;20052;-93
2023/07/05 01:18:19;;;;;;;30.83;11.80;;;;;;;20.77;100.00;98627.72;4966959;28;20045;-92
2023/07/05 01:20:51;;;;;;;30.55;11.65;;;;;;;20.66;100.00;98621.22;4962269;28;20047;-92
2023/07/05 01:23:50;;;;;;;27.38;11.93;;;;;;;20.65;100.00;98641.13;4961471;28;20043;-93
2023/07/05 01:26:47;;;;;;;25.15;10.50;;;;;;;20.51;100.00;98623.16;4960899;28;20035;-94
2023/07/05 01:29:40;;;;;;;35.35;11.18;;;;;;;20.45;100.00;98615.50;4968951;28;20042;-93
2023/07/05 01:32:13;;;;;;;30.00;10.25;;;;;;;20.52;100.00;98618.63;4971295;28;20044;-93
2023/07/05 01:34:46;;;;;;;30.30;10.63;;;;;;;20.42;100.00;98612.13;4983808;28;20039;-93
2023/07/05 01:37:26;;;;;;;28.80;10.15;;;;;;;20.16;100.00;98593.19;4967896;28;20039;-94
2023/07/05 01:39:52;;;;;;;37.38;11.18;;;;;;;20.15;100.00;98610.38;4980755;28;20452;-94
2023/07/05 01:42:20;;;;;;;27.02;11.30;;;;;;;19.98;100.00;98587.25;4967036;28;20059;-93
2023/07/05 01:44:46;;;;;;;31.75;11.60;;;;;;;19.99;100.00;98609.69;4970284;28;20043;-93
2023/07/05 01:47:17;;;;;;;29.48;10.60;;;;;;;19.78;100.00;98577.81;4971007;28;20119;-93
2023/07/05 01:50:03;;;;;;;33.50;11.43;;;;;;;19.80;100.00;98607.38;4970499;28;20040;-92
2023/07/05 01:52:34;;;;;;;29.17;11.45;;;;;;;19.56;100.00;98585.56;4968316;28;20041;-92
2023/07/05 01:55:06;;;;;;;33.60;11.27;;;;;;;19.63;100.00;98605.78;4970779;28;20401;-93
2023/07/05 01:57:36;;;;;;;31.73;11.30;;;;;;;19.62;100.00;98614.84;4986988;28;20122;-93
2023/07/05 02:00:07;;;;;;;31.05;12.25;;;;;;;19.57;100.00;98623.25;4962510;28;20042;-92
2023/07/05 02:02:38;;;;;;;38.65;13.35;;;;;;;19.43;100.00;98609.78;4962317;28;20078;-93
2023/07/05 02:05:07;;;;;;;36.35;12.05;;;;;;;19.40;100.00;98600.06;4967018;28;20034;-92
2023/07/05 02:07:33;;;;;;;27.70;11.70;;;;;;;19.21;100.00;98583.38;4970764;28;20134;-93
2023/07/05 02:09:59;;;;;;;28.45;12.65;;;;;;;19.37;100.00;98613.78;4968765;28;20094;-93
2023/07/05 02:12:26;;;;;;;33.88;12.60;;;;;;;19.33;100.00;98614.06;4965251;28;20043;-93
2023/07/05 02:14:52;;;;;;;36.13;12.32;;;;;;;19.21;100.00;98608.50;4960963;29;20043;-94
2023/07/05 02:17:19;;;;;;;33.83;13.82;;;;;;;19.23;100.00;98620.03;4967064;28;20042;-93
2023/07/05 02:19:46;;;;;;;31.45;11.98;;;;;;;19.07;100.00;98603.16;4972203;28;20050;-91
2023/07/05 02:22:16;;;;;;;36.60;13.07;;;;;;;19.15;100.00;98613.41;4968932;28;20047;-94
2023/07/05 02:24:42;;;;;;;31.40;12.43;;;;;;;19.02;100.00;98586.44;4948719;29;20457;-94
2023/07/05 02:27:18;;;;;;;32.63;12.15;;;;;;;19.00;100.00;98585.66;4967117;28;20031;-93
2023/07/05 02:29:47;;;;;;;37.60;12.77;;;;;;;19.12;100.00;98598.31;4965658;28;20035;-94
2023/07/05 02:32:13;;;;;;;30.58;12.57;;;;;;;18.98;100.00;98574.97;4967519;28;20046;-93
2023/07/05 02:34:41;;;;;;;37.80;12.52;;;;;;;18.96;100.00;98570.66;4968918;28;20118;-94
2023/07/05 02:37:10;;;;;;;30.67;12.20;;;;;;;19.08;100.00;98588.69;4960268;28;20055;-94
2023/07/05 02:39:36;;;;;;;30.52;12.38;;;;;;;19.07;100.00;98601.31;4974211;28;20043;-93
2023/07/05 02:42:03;;;;;;;34.15;13.95;;;;;;;18.97;100.00;98577.75;4968324;28;20106;-93
2023/07/05 02:44:28;;;;;;;34.00;13.57;;;;;;;19.16;100.00;98601.69;4974204;28;20042;-94
2023/07/05 02:46:54;;;;;;;38.05;13.15;;;;;;;19.01;100.00;98584.69;4964044;28;20041;-94
2023/07/05 02:49:20;;;;;;;36.17;13.45;;;;;;;19.02;100.00;98600.75;4960074;29;20043;-94
2023/07/05 02:51:46;;;;;;;32.50;12.43;;;;;;;18.99;100.00;98598.25;4965712;28;20109;-93
2023/07/05 02:54:13;;;;;;;34.47;12.43;;;;;;;18.93;100.00;98597.78;4968217;28;20051;-94
2023/07/05 02:56:39;;;;;;;33.90;12.50;;;;;;;18.94;100.00;98594.13;4962149;28;20039;-95
2023/07/05 02:59:05;;;;;;;33.15;12.82;;;;;;;18.89;100.00;98610.59;4963431;28;20039;-94
2023/07/05 03:01:42;;;;;;;35.78;12.93;;;;;;;18.80;100.00;98601.28;4973251;28;20039;-93
2023/07/05 03:04:12;;;;;;;33.33;12.32;;;;;;;18.67;100.00;98598.44;4966249;28;20039;-93
2023/07/05 03:06:38;;;;;;;37.15;12.35;;;;;;;18.69;100.00;98601.03;4964260;28;20114;-93
2023/07/05 03:09:08;;;;;;;37.58;12.55;;;;;;;18.67;100.00;98593.06;4975508;28;20063;-92
2023/07/05 03:11:35;;;;;;;35.95;12.27;;;;;;;18.59;100.00;98591.81;4964850;28;20048;-93
2023/07/05 03:14:04;;;;;;;31.27;12.20;;;;;;;18.59;100.00;98589.97;4972777;28;20031;-93
2023/07/05 03:16:30;;;;;;;39.63;12.68;;;;;;;18.66;100.00;98609.31;4967474;28;20485;-93
2023/07/05 03:18:56;;;;;;;32.38;12.23;;;;;;;18.59;100.00;98603.44;4979007;28;20145;-93
2023/07/05 03:21:22;;;;;;;31.25;12.60;;;;;;;18.68;100.00;98623.53;4968448;28;20048;-93
2023/07/05 03:23:48;;;;;;;33.28;13.32;;;;;;;18.61;100.00;98619.50;4974846;28;20046;-93
2023/07/05 03:26:14;;;;;;;40.85;13.25;;;;;;;18.52;100.00;98604.78;4970865;28;20019;-94
2023/07/05 03:28:41;;;;;;;32.38;12.10;;;;;;;18.58;100.00;98625.94;4976844;28;20051;-93
2023/07/05 03:31:08;;;;;;;33.05;11.95;;;;;;;18.62;100.00;98630.16;4978695;28;20051;-94
2023/07/05 03:33:35;;;;;;;32.38;11.65;;;;;;;18.45;100.00;98600.72;4993561;28;20083;-93
2023/07/05 03:36:03;;;;;;;34.63;13.73;;;;;;;18.58;100.00;98620.53;4995332;28;20039;-92
2023/07/05 03:38:30;;;;;;;28.30;11.93;;;;;;;18.55;100.00;98615.38;4972504;28;20070;-94
2023/07/05 03:41:00;;;;;;;39.60;13.57;;;;;;;18.59;100.00;98622.28;4966116;28;20130;-94
2023/07/05 03:43:27;;;;;;;37.47;13.50;;;;;;;18.65;100.00;98631.81;4962152;28;20078;-93
2023/07/05 03:45:57;;;;;;;32.70;13.18;;;;;;;18.67;100.00;98629.88;4958929;28;20047;-94
2023/07/05 03:48:23;;;;;;;31.45;11.98;;;;;;;18.70;100.00;98634.22;4970880;28;20045;-95
2023/07/05 03:50:49;;;;;;;36.05;13.77;;;;;;;18.68;100.00;98627.09;4969248;28;20035;-94
2023/07/05 03:53:15;;;;;;;36.08;12.98;;;;;;;18.64;100.00;98620.16;4978375;28;20134;-94
2023/07/05 03:55:41;;;;;;;40.67;13.48;;;;;;;18.58;100.00;98596.31;4978276;28;20043;-93
2023/07/05 03:58:07;;;;;;;27.48;12.63;;;;;;;18.74;100.00;98633.94;4959268;28;20043;-93
2023/07/05 04:00:32;;;;;;;32.42;12.13;;;;;;;18.67;100.00;98628.06;4958907;29;20138;-94
2023/07/05 04:03:00;;;;;;;30.83;12.70;;;;;;;18.65;100.00;98624.63;4958369;28;20058;-93
2023/07/05 04:05:26;;;;;;;40.70;13.52;;;;;;;18.75;100.00;98635.66;4959234;29;20110;-94
2023/07/05 04:07:51;;;;;;;38.90;14.20;;;;;;;18.73;100.00;98631.34;4964170;28;20038;-93
2023/07/05 04:10:17;;;;;;;33.30;13.13;;;;;;;18.77;100.00;98631.03;4978832;28;20125;-93
2023/07/05 04:12:43;;;;;;;32.15;12.50;;;;;;;18.78;100.00;98635.53;4994352;28;20058;-94
2023/07/05 04:15:10;;;;;;;33.63;13.02;;;;;;;18.83;100.00;98640.63;4974887;28;20046;-94
2023/07/05 04:17:36;;;;;;;37.10;13.20;;;;;;;18.72;100.00;98610.75;4976186;28;20065;-93
2023/07/05 04:20:04;;;;;;;29.27;13.07;;;;;;;18.80;100.00;98627.31;4978513;28;20070;-93
2023/07/05 04:22:30;;;;;;;34.92;12.18;;;;;;;18.77;100.00;98622.09;4965890;28;20501;-93
2023/07/05 04:24:56;;;;;;;29.38;11.90;;;;;;;18.94;100.00;98639.94;4977512;28;20449;-94
2023/07/05 04:27:22;;;;;;;31.13;12.40;;;;;;;18.93;100.00;98635.50;4978209;28;20117;-94
2023/07/05 04:29:48;;;;;;;27.52;11.40;;;;;;;19.06;100.00;98652.59;4994644;28;20046;-93
2023/07/05 04:32:14;;;;;;;30.25;11.55;;;;;;;19.04;100.00;98625.78;4971361;28;20042;-93
2023/07/05 04:34:41;;;;;;;25.45;11.82;;;;;;;19.13;100.00;98632.41;4960230;28;20047;-94
2023/07/05 04:37:08;;;;;;;28.17;11.98;;;;;;;19.11;100.00;98614.63;4978650;28;20063;-93
2023/07/05 04:39:34;;;;;;;27.13;11.15;;;;;;;19.27;100.00;98639.59;4938655;29;20051;-93
2023/07/05 04:41:59;;;;;;;28.92;11.88;;;;;;;19.37;100.00;98651.53;4938898;29;20051;-92
2023/07/05 04:44:25;;;;;;;28.77;11.82;;;;;;;19.34;100.00;98635.53;4985661;28;20432;-93
2023/07/05 04:46:51;;;;;;;29.60;11.75;;;;;;;19.44;100.00;98639.34;4978377;28;20027;-94
2023/07/05 04:49:17;;;;;;;32.65;12.98;;;;;;;19.56;100.00;98644.91;4961951;28;20047;-93
2023/07/05 04:51:43;;;;;;;32.75;12.45;;;;;;;19.66;100.00;98646.03;4957971;28;20073;-92
2023/07/05 04:54:10;;;;;;;30.95;12.32;;;;;;;19.64;100.00;98629.09;4967517;28;20101;-94
2023/07/05 04:56:36;;;;;;;28.10;11.32;;;;;;;19.63;100.00;98609.34;4958071;28;20497;-93
2023/07/05 04:59:02;;;;;;;31.33;11.05;;;;;;;20.02;100.00;98631.94;4972906;28;20101;-93
2023/07/05 05:01:28;;;;;;;28.55;11.68;;;;;;;20.58;100.00;98622.75;4969087;28;20039;-94
2023/07/05 05:03:54;;;;;;;30.65;11.98;;;;;;;21.06;100.00;98618.38;4973878;28;20059;-92
2023/07/05 05:06:20;;;;;;;30.45;10.98;;;;;;;21.53;100.00;98611.38;4974647;28;20038;-93
2023/07/05 05:08:46;;;;;;;23.33;9.93;;;;;;;22.18;100.00;98632.66;4972970;28;20039;-93
2023/07/05 05:11:13;;;;;;;24.52;10.75;;;;;;;22.49;100.00;98621.22;4970952;28;20027;-92
2023/07/05 05:13:39;;;;;;;21.75;9.50;;;;;;;22.87;100.00;98625.44;4974953;28;20044;-95
2023/07/05 05:16:06;;;;;;;22.52;9.65;;;;;;;23.19;100.00;98634.72;4957459;28;20138;-93
2023/07/05 05:18:35;;;;;;;26.58;10.50;;;;;;;23.47;100.00;98646.91;4962772;28;20035;-94
2023/07/05 05:21:01;;;;;;;24.60;10.60;;;;;;;23.61;100.00;98652.03;4965650;28;20055;-93
2023/07/05 05:23:29;;;;;;;23.92;9.63;;;;;;;23.82;100.00;98657.56;4958631;28;20047;-94
2023/07/05 05:25:55;;;;;;;25.13;9.63;;;;;;;24.08;100.00;98654.53;4967350;28;20044;-94
2023/07/05 05:28:22;;;;;;;20.88;10.13;;;;;;;24.11;100.00;98654.25;4961576;29;20035;-95
2023/07/05 05:30:49;;;;;;;22.05;9.05;;;;;;;24.05;100.00;98647.50;4984638;28;20046;-94
2023/07/05 05:33:16;;;;;;;25.25;9.05;;;;;;;24.12;100.00;98648.69;4961890;28;20078;-94
2023/07/05 05:35:46;;;;;;;20.80;8.95;;;;;;;24.18;100.00;98652.72;4985989;28;20038;-93
2023/07/05 05:38:25;;;;;;;21.95;9.70;;;;;;;24.31;100.00;98650.72;4982708;28;20035;-94
2023/07/05 05:40:59;;;;;;;21.33;9.30;;;;;;;24.37;100.00;98652.88;4967499;28;20050;-91
2023/07/05 05:43:26;;;;;;;23.75;9.40;;;;;;;24.71;100.00;98668.19;4969424;28;20043;-93
2023/07/05 05:45:52;;;;;;;19.88;10.05;;;;;;;24.73;100.00;98666.19;4980400;28;20039;-94
2023/07/05 05:48:18;;;;;;;23.02;9.48;;;;;;;24.51;100.00;98656.31;4969741;28;20047;-92
2023/07/05 05:50:44;;;;;;;20.63;8.65;;;;;;;24.76;100.00;98666.75;4969347;28;20066;-93
2023/07/05 05:53:10;;;;;;;21.83;9.23;;;;;;;24.78;100.00;98653.91;4969540;28;20109;-92
2023/07/05 05:55:37;;;;;;;20.90;8.65;;;;;;;24.85;100.00;98659.66;4974077;28;20039;-94
2023/07/05 05:58:03;;;;;;;17.77;8.63;;;;;;;24.96;100.00;98661.44;4968622;28;20015;-94
2023/07/05 06:00:31;;;;;;;17.10;8.15;;;;;;;25.05;100.00;98670.63;4970284;28;20043;-92
2023/07/05 06:02:57;;;;;;;19.25;8.90;;;;;;;24.95;100.00;98676.91;4963359;28;20072;-93
2023/07/05 06:05:23;;;;;;;18.48;9.70;;;;;;;24.88;100.00;98666.72;4967135;28;20067;-92
2023/07/05 06:07:49;;;;;;;19.92;8.68;;;;;;;24.94;100.00;98683.34;4971287;28;20537;-94
2023/07/05 06:10:15;;;;;;;19.20;9.23;;;;;;;24.87;100.00;98668.53;4967231;28;20043;-91
2023/07/05 06:12:41;;;;;;;18.92;9.73;;;;;;;24.75;100.00;98666.91;4964646;29;20027;-93
2023/07/05 06:15:10;;;;;;;22.08;9.75;;;;;;;24.93;100.00;98688.91;4969550;28;20047;-93
2023/07/05 06:17:37;;;;;;;;;;;;;;;24.96;100.00;98688.63;4962718;28;20039;-94
2023/07/05 06:20:06;;;;;;;17.92;9.30;;;;;;;24.59;100.00;98662.81;4987261;28;19922;-93
2023/07/05 06:22:31;;;;;;;21.52;9.77;;;;;;;24.89;100.00;98688.31;4974146;28;20044;-93
2023/07/05 06:24:57;;;;;;;23.25;9.73;;;;;;;25.02;100.00;98686.25;4960990;29;20485;-95
2023/07/05 06:27:23;;;;;;;24.23;10.25;;;;;;;25.31;100.00;98698.28;4961626;29;20043;-93
2023/07/05 06:29:49;;;;;;;21.38;9.10;;;;;;;25.09;100.00;98675.69;4965798;28;20513;-93
2023/07/05 06:32:15;;;;;;;19.63;9.25;;;;;;;25.07;100.00;98671.38;4971971;28;20043;-95
2023/07/05 06:34:42;;;;;;;24.13;11.25;;;;;;;25.27;100.00;98697.72;4980909;28;20045;-94
2023/07/05 06:37:08;;;;;;;22.40;10.57;;;;;;;25.32;100.00;98689.16;4977242;28;20043;-93
2023/07/05 06:39:36;;;;;;;25.33;10.75;;;;;;;25.33;100.00;98688.13;4966752;28;20027;-92
2023/07/05 06:42:02;;;;;;;21.15;10.70;;;;;;;25.42;100.00;98684.59;4965412;28;20065;-92
2023/07/05 06:44:27;;;;;;;23.23;11.48;;;;;;;25.49;100.00;98674.03;4969411;28;20625;-90
2023/07/05 06:46:53;;;;;;;22.23;11.35;;;;;;;25.32;100.00;98673.66;4968717;28;20047;-93
2023/07/05 06:49:20;;;;;;;26.10;11.80;;;;;;;25.58;100.00;98698.53;4960031;28;20134;-92
2023/07/05 06:51:48;;;;;;;30.33;14.38;;;;;;;25.57;100.00;98691.38;4963316;28;20035;-92
2023/07/05 06:54:15;;;;;;;31.77;14.63;;;;;;;25.49;100.00;98684.91;4963374;28;20039;-92
2023/07/05 06:56:40;;;;;;;22.23;11.63;;;;;;;25.61;100.00;98689.22;4979987;28;20065;-91
2023/07/05 06:59:06;;;;;;;19.27;10.75;;;;;;;25.77;100.00;98696.88;4964293;28;20442;-91
2023/07/05 07:01:32;;;;;;;22.50;10.50;;;;;;;25.84;100.00;98695.31;4956596;28;20486;-91
2023/07/05 07:03:58;;;;;;;29.67;12.25;;;;;;;25.80;100.00;98697.44;4955744;29;20043;-91
2023/07/05 07:06:24;;;;;;;28.55;12.40;;;;;;;25.86;100.00;98689.75;4957927;28;20050;-92
2023/07/05 07:08:51;;;;;;;27.70;11.77;;;;;;;25.69;100.00;98681.22;4956696;28;20150;-90
2023/07/05 07:11:17;;;;;;;23.42;10.10;;;;;;;25.95;99.02;98687.06;4956077;29;20032;-92
2023/07/05 07:13:43;;;;;;;22.92;10.68;;;;;;;26.09;100.00;98693.09;4955229;28;20386;-94
2023/07/05 07:16:10;;;;;;;27.73;11.35;;;;;;;26.31;100.00;98713.78;4953820;28;20066;-93
2023/07/05 07:18:37;;;;;;;22.33;10.10;;;;;;;26.47;98.22;98705.88;4959701;28;20023;-90
2023/07/05 07:21:06;;;;;;;23.88;10.73;;;;;;;26.69;94.74;98720.25;4958543;28;20390;-92
2023/07/05 07:23:32;;;;;;;23.83;9.70;;;;;;;26.89;94.19;98696.53;4957835;28;20461;-92
2023/07/05 07:26:05;;;;;;;25.50;9.63;;;;;;;26.94;93.67;98695.09;4954457;28;20043;-91
2023/07/05 07:28:31;;;;;;;23.45;9.80;;;;;;;27.02;94.23;98713.44;4959545;28;20058;-91
2023/07/05 07:30:57;;;;;;;22.77;9.07;;;;;;;26.74;93.64;98709.75;4957997;28;20141;-91
2023/07/05 07:33:23;;;;;;;25.60;11.00;;;;;;;26.79;94.85;98718.38;4954431;28;20050;-92
2023/07/05 07:35:49;;;;;;;26.70;9.55;;;;;;;27.03;93.58;98710.56;4956609;28;20090;-92
2023/07/05 07:38:16;;;;;;;24.85;9.98;;;;;;;27.13;91.41;98712.41;4960313;28;20062;-92
2023/07/05 07:40:42;;;;;;;26.92;10.30;;;;;;;27.28;92.44;98710.09;4962652;28;20051;-92
2023/07/05 07:43:10;;;;;;;21.77;9.45;;;;;;;27.20;91.29;98689.84;4974449;28;20117;-91
2023/07/05 07:45:36;;;;;;;23.35;9.43;;;;;;;27.45;90.62;98715.66;4953613;28;20396;-91
2023/07/05 07:48:02;;;;;;;22.50;9.63;;;;;;;27.59;88.90;98717.00;4959250;28;20042;-92
2023/07/05 07:50:28;;;;;;;24.65;9.05;;;;;;;27.56;88.29;98700.06;4955682;28;20050;-92
2023/07/05 07:52:54;;;;;;;18.90;8.48;;;;;;;26.67;87.65;98701.28;4947005;28;20042;-92
2023/07/05 07:55:20;;;;;;;24.25;9.35;;;;;;;26.61;88.45;98699.16;4958454;28;20489;-92
2023/07/05 07:57:46;;;;;;;15.93;6.47;;;;;;;26.62;78.18;98696.28;4956820;28;20043;-91
2023/07/05 08:00:14;;;;;;;15.18;5.82;;;;;;;27.10;75.09;98705.38;4957015;28;20050;-92
2023/07/05 08:02:40;;;;;;;11.35;5.28;;;;;;;26.55;72.40;98710.63;4959240;28;20055;-93
2023/07/05 08:05:13;;;;;;;13.95;6.20;;;;;;;26.93;71.66;98697.94;4960700;28;20095;-93
2023/07/05 08:07:38;;;;;;;13.77;5.80;;;;;;;27.28;59.03;98701.91;4968000;28;20069;-94
2023/07/05 08:10:05;;;;;;;13.52;5.28;;;;;;;27.40;59.92;98685.19;4965597;28;20550;-93
2023/07/05 08:12:31;;;;;;;15.15;6.15;;;;;;;27.70;58.78;98690.50;4956541;28;20039;-93
2023/07/05 08:14:57;;;;;;;12.88;5.82;;;;;;;27.78;56.28;98701.50;4962291;28;20035;-92
2023/07/05 08:17:24;;;;;;;14.73;5.55;;;;;;;27.13;57.70;98666.88;4979034;28;20107;-92
2023/07/05 08:19:50;;;;;;;12.65;5.25;;;;;;;26.62;59.58;98692.69;4966662;28;20043;-92
2023/07/05 08:22:16;;;;;;;14.98;5.97;;;;;;;26.89;59.75;98688.34;4965547;28;20151;-92
2023/07/05 08:24:42;;;;;;;13.43;5.53;;;;;;;27.48;61.04;98692.63;4983337;28;20054;-92
2023/07/05 08:27:08;;;;;;;10.20;4.53;;;;;;;27.84;55.10;98695.44;4962158;28;20458;-92
2023/07/05 08:29:33;;;;;;;9.82;4.80;;;;;;;28.06;56.77;98700.53;4980102;28;20070;-93
2023/07/05 08:31:59;;;;;;;8.00;3.88;;;;;;;27.22;49.29;98695.19;4964887;28;20130;-91
2023/07/05 08:34:26;;;;;;;10.38;4.03;;;;;;;27.40;49.11;98695.25;4969023;28;20043;-92
2023/07/05 08:36:52;;;;;;;8.07;3.88;;;;;;;27.38;48.17;98684.47;4967362;28;20047;-92
2023/07/05 08:39:18;;;;;;;8.18;3.53;;;;;;;27.58;49.67;98682.50;4983879;28;20050;-92
2023/07/05 08:42:28;;;;;;;9.13;4.50;;;;;;;27.99;48.38;98693.06;4962157;28;20070;-94
2023/07/05 08:45:02;;;;;;;7.15;4.03;;;;;;;28.35;50.44;98691.22;4935686;28;20456;-92
2023/07/05 08:47:32;;;;;;;7.75;4.00;;;;;;;28.50;48.85;98683.38;4982385;28;20040;-93
2023/07/05 08:50:09;;;;;;;8.90;4.13;;;;;;;28.35;48.34;98666.63;4963437;28;20555;-92
2023/07/05 08:52:42;;;;;;;10.15;3.80;;;;;;;28.64;46.18;98682.78;4968612;28;20509;-93
2023/07/05 08:55:14;;;;;;;9.90;4.00;;;;;;;28.62;45.46;98684.81;4964280;28;20046;-93
2023/07/05 08:57:44;;;;;;;10.90;4.28;;;;;;;27.96;45.92;98687.94;4968921;28;20062;-92
2023/07/05 09:00:15;;;;;;;10.38;4.18;;;;;;;27.81;45.95;98693.88;4964349;28;20039;-93
2023/07/05 09:02:41;;;;;;;6.93;3.80;;;;;;;27.87;45.97;98684.25;4971511;28;20051;-93
2023/07/05 09:05:16;;;;;;;11.75;4.32;;;;;;;28.34;45.73;98692.22;4961365;28;20046;-91
2023/07/05 09:07:54;;;;;;;8.88;3.63;;;;;;;28.38;43.79;98699.09;4963588;28;20050;-92
2023/07/05 09:10:28;;;;;;;7.47;3.95;;;;;;;27.84;45.63;98692.72;4968338;28;20493;-93
2023/07/05 09:13:04;;;;;;;7.80;3.60;;;;;;;27.49;45.31;98688.03;4967670;28;20129;-92
2023/07/05 09:15:36;;;;;;;5.85;3.28;;;;;;;27.53;46.72;98693.03;4968742;28;20054;-92
2023/07/05 09:18:09;;;;;;;7.65;3.38;;;;;;;27.54;45.60;98681.09;4971001;28;20158;-94
2023/07/05 09:20:53;;;;;;;6.45;3.35;;;;;;;27.79;44.88;98695.03;4968766;28;20043;-94
2023/07/05 09:23:24;;;;;;;9.15;3.40;;;;;;;27.99;42.94;98685.72;4960810;28;20081;-91
2023/07/05 09:25:56;;;;;;;6.95;3.40;;;;;;;27.91;43.31;98682.94;4985890;28;20059;-92
2023/07/05 09:28:27;;;;;;;8.55;3.22;;;;;;;27.94;44.01;98688.06;4968436;28;20031;-92
2023/07/05 09:30:53;;;;;;;6.40;3.13;;;;;;;27.83;42.68;98680.06;4971336;28;20043;-93
2023/07/05 09:33:24;;;;;;;7.15;3.40;;;;;;;27.72;44.54;98670.22;4979624;28;20062;-92
2023/07/05 09:35:52;;;;;;;8.27;4.20;;;;;;;27.43;45.91;98665.78;4968827;28;20047;-93
2023/07/05 09:38:24;;;;;;;9.57;3.60;;;;;;;27.92;46.55;98678.31;4977331;28;20031;-92
2023/07/05 09:40:58;;;;;;;7.55;3.80;;;;;;;27.63;45.37;98660.22;4975436;28;20078;-93
2023/07/05 09:43:28;;;;;;;10.80;4.97;;;;;;;27.69;44.63;98661.44;4971985;28;20042;-93
2023/07/05 09:45:54;;;;;;;9.93;3.97;;;;;;;27.97;44.65;98679.56;4969921;28;20070;-94
2023/07/05 09:48:20;;;;;;;7.50;3.72;;;;;;;27.83;45.13;98661.78;4969085;28;20035;-94
2023/07/05 09:50:49;;;;;;;6.88;3.95;;;;;;;27.55;45.42;98665.56;4982419;28;20560;-92
2023/07/05 09:53:27;;;;;;;8.25;3.97;;;;;;;27.74;45.23;98654.53;4973928;28;20062;-93
2023/07/05 09:56:04;;;;;;;9.00;3.88;;;;;;;27.59;46.20;98651.44;4971203;28;20062;-92
2023/07/05 09:58:31;;;;;;;8.23;4.03;;;;;;;27.54;46.48;98639.25;4964123;28;20401;-93
2023/07/05 10:01:02;;;;;;;8.23;3.83;;;;;;;27.92;46.89;98651.84;4960639;28;20079;-94
2023/07/05 10:03:34;;;;;;;7.05;3.53;;;;;;;28.54;47.26;98640.13;4983938;28;20418;-92
2023/07/05 10:06:07;;;;;;;7.28;3.83;;;;;;;29.02;46.23;98646.97;4964478;28;20417;-93
2023/07/05 10:08:42;;;;;;;7.20;3.80;;;;;;;28.70;46.14;98655.81;4978701;28;20154;-92
2023/07/05 10:11:18;;;;;;;11.23;4.60;;;;;;;29.07;45.31;98653.66;4962070;28;20134;-94
2023/07/05 10:13:45;;;;;;;9.90;4.03;;;;;;;29.03;44.14;98645.94;4967412;28;20073;-92
2023/07/05 10:16:11;;;;;;;7.80;4.05;;;;;;;28.46;45.25;98649.94;4984040;28;20045;-91
2023/07/05 10:18:40;;;;;;;7.93;4.68;;;;;;;28.57;46.89;98645.28;4964769;28;20094;-93
2023/07/05 10:21:17;;;;;;;8.32;3.95;;;;;;;28.69;46.92;98638.50;4964267;28;20075;-90
2023/07/05 10:23:45;;;;;;;7.18;3.97;;;;;;;28.74;44.54;98640.78;4968858;28;20047;-93
2023/07/05 10:26:11;;;;;;;6.35;3.75;;;;;;;28.52;45.38;98651.25;4980198;28;20043;-92
2023/07/05 10:28:41;;;;;;;8.02;4.00;;;;;;;28.64;47.23;98649.94;4972466;28;20027;-93
2023/07/05 10:31:25;;;;;;;10.93;4.85;;;;;;;28.33;45.67;98652.22;4970531;28;20042;-93
2023/07/05 10:34:04;;;;;;;7.95;4.85;;;;;;;27.93;48.17;98645.34;4967293;28;20040;-91
2023/07/05 10:36:29;;;;;;;8.95;4.05;;;;;;;28.25;48.81;98627.53;4984763;28;20075;-94
2023/07/05 10:38:57;;;;;;;8.82;4.60;;;;;;;28.43;47.72;98638.47;4963357;28;20031;-92
2023/07/05 10:41:29;;;;;;;9.85;5.05;;;;;;;28.28;49.87;98643.66;4966553;28;20370;-92
2023/07/05 10:43:59;;;;;;;7.63;4.18;;;;;;;28.08;47.66;98625.69;4967192;28;20050;-92
2023/07/05 10:46:26;;;;;;;7.55;4.05;;;;;;;28.36;48.30;98627.28;4966822;28;20055;-92
2023/07/05 10:48:52;;;;;;;9.80;4.40;;;;;;;28.44;47.84;98645.66;4969198;28;20107;-92
2023/07/05 10:51:21;;;;;;;10.40;4.63;;;;;;;28.84;48.48;98617.78;4964557;28;20043;-92
2023/07/05 10:53:52;;;;;;;9.30;4.93;;;;;;;28.97;47.21;98614.56;4963754;28;20129;-93
2023/07/05 10:56:24;;;;;;;8.95;4.65;;;;;;;29.34;48.74;98618.03;4984109;28;20035;-94
2023/07/05 10:58:55;;;;;;;8.90;4.53;;;;;;;29.15;46.99;98617.28;4970449;28;20035;-93
2023/07/05 11:01:26;;;;;;;10.20;4.90;;;;;;;29.19;48.43;98617.78;4961418;28;20066;-93
2023/07/05 11:03:59;;;;;;;9.40;4.95;;;;;;;29.43;47.24;98615.19;4964977;28;20413;-92
2023/07/05 11:06:28;;;;;;;11.35;4.78;;;;;;;29.19;47.88;98605.00;4979894;28;20046;-92
2023/07/05 11:08:54;;;;;;;9.45;5.00;;;;;;;28.86;48.22;98615.75;4978013;28;20035;-93
2023/07/05 11:11:27;;;;;;;8.85;4.35;;;;;;;28.71;45.79;98609.13;4963824;28;20588;-91
2023/07/05 11:13:54;;;;;;;9.07;4.75;;;;;;;28.74;47.94;98616.16;4971478;28;20046;-93
2023/07/05 11:16:23;;;;;;;8.75;4.50;;;;;;;28.90;47.46;98616.25;4958899;28;20035;-93
2023/07/05 11:18:51;;;;;;;7.57;4.35;;;;;;;29.13;47.27;98619.34;4964511;28;20046;-92
2023/07/05 11:21:38;;;;;;;9.68;4.38;;;;;;;29.68;49.05;98618.84;4964572;28;20055;-92
2023/07/05 11:24:05;;;;;;;8.88;4.40;;;;;;;29.62;47.71;98597.56;4963004;28;20039;-93